sensor_id;sensor_type;location;lat;lon;timestamp;P1;durP1;ratioP1;P2;durP2;ratioP2
74670;SDS011;63196;39.564;2.628;2022-11-11T00:01:55;3.90;;;1.10;;
74670;SDS011;63196;39.564;2.628;2022-11-11T00:04:20;4.50;;;1.00;;
74670;SDS011;63196;39.564;2.628;2022-11-11T00:06:46;3.30;;;0.80;;
74670;SDS011;63196;39.564;2.628;2022-11-11T00:09:11;7.00;;;0.80;;
74670;SDS011;63196;39.564;2.628;2022-11-11T00:11:37;5.30;;;0.90;;
74670;SDS011;63196;39.564;2.628;2022-11-11T00:14:02;4.00;;;0.80;;
74670;SDS011;63196;39.564;2.628;2022-11-11T00:16:27;4.60;;;1.20;;
74670;SDS011;63196;39.564;2.628;2022-11-11T00:19:13;7.20;;;1.10;;
74670;SDS011;63196;39.564;2.628;2022-11-11T00:21:57;3.50;;;0.60;;
74670;SDS011;63196;39.564;2.628;2022-11-11T00:24:41;7.10;;;1.30;;
74670;SDS011;63196;39.564;2.628;2022-11-11T00:27:25;2.60;;;0.60;;
74670;SDS011;63196;39.564;2.628;2022-11-11T00:29:50;2.90;;;1.00;;
74670;SDS011;63196;39.564;2.628;2022-11-11T00:32:16;4.80;;;0.90;;
74670;SDS011;63196;39.564;2.628;2022-11-11T00:34:47;3.50;;;0.70;;
74670;SDS011;63196;39.564;2.628;2022-11-11T00:37:32;6.40;;;1.00;;
74670;SDS011;63196;39.564;2.628;2022-11-11T00:39:57;7.20;;;1.30;;
74670;SDS011;63196;39.564;2.628;2022-11-11T00:42:23;4.10;;;0.90;;
74670;SDS011;63196;39.564;2.628;2022-11-11T00:44:48;5.70;;;1.10;;
74670;SDS011;63196;39.564;2.628;2022-11-11T00:47:14;6.80;;;1.10;;
74670;SDS011;63196;39.564;2.628;2022-11-11T00:49:58;6.50;;;1.70;;
74670;SDS011;63196;39.564;2.628;2022-11-11T00:52:45;5.70;;;1.00;;
74670;SDS011;63196;39.564;2.628;2022-11-11T00:55:11;7.50;;;1.60;;
74670;SDS011;63196;39.564;2.628;2022-11-11T00:57:37;4.10;;;1.00;;
74670;SDS011;63196;39.564;2.628;2022-11-11T01:00:03;4.90;;;1.10;;
74670;SDS011;63196;39.564;2.628;2022-11-11T01:02:28;4.30;;;0.90;;
74670;SDS011;63196;39.564;2.628;2022-11-11T01:04:54;5.60;;;1.00;;
74670;SDS011;63196;39.564;2.628;2022-11-11T01:07:20;6.60;;;1.20;;
74670;SDS011;63196;39.564;2.628;2022-11-11T01:09:45;5.60;;;1.00;;
74670;SDS011;63196;39.564;2.628;2022-11-11T01:12:10;9.30;;;1.20;;
74670;SDS011;63196;39.564;2.628;2022-11-11T01:14:36;6.10;;;1.00;;
74670;SDS011;63196;39.564;2.628;2022-11-11T01:17:01;5.40;;;1.40;;
74670;SDS011;63196;39.564;2.628;2022-11-11T01:19:29;7.50;;;1.20;;
74670;SDS011;63196;39.564;2.628;2022-11-11T01:21:54;6.80;;;1.30;;
74670;SDS011;63196;39.564;2.628;2022-11-11T01:24:19;6.50;;;1.20;;
74670;SDS011;63196;39.564;2.628;2022-11-11T01:26:45;9.30;;;1.80;;
74670;SDS011;63196;39.564;2.628;2022-11-11T01:29:10;5.80;;;0.90;;
74670;SDS011;63196;39.564;2.628;2022-11-11T01:31:36;9.00;;;1.10;;
74670;SDS011;63196;39.564;2.628;2022-11-11T01:34:01;5.50;;;1.20;;
74670;SDS011;63196;39.564;2.628;2022-11-11T01:36:27;5.20;;;1.30;;
74670;SDS011;63196;39.564;2.628;2022-11-11T01:38:56;8.10;;;1.20;;
74670;SDS011;63196;39.564;2.628;2022-11-11T01:41:27;7.00;;;1.40;;
74670;SDS011;63196;39.564;2.628;2022-11-11T01:43:57;5.80;;;1.40;;
74670;SDS011;63196;39.564;2.628;2022-11-11T01:48:49;7.30;;;1.40;;
74670;SDS011;63196;39.564;2.628;2022-11-11T01:54:00;6.90;;;1.00;;
74670;SDS011;63196;39.564;2.628;2022-11-11T01:56:27;9.10;;;2.00;;
74670;SDS011;63196;39.564;2.628;2022-11-11T01:58:53;6.00;;;0.90;;
74670;SDS011;63196;39.564;2.628;2022-11-11T02:01:19;4.70;;;1.70;;
74670;SDS011;63196;39.564;2.628;2022-11-11T02:03:45;6.10;;;1.50;;
74670;SDS011;63196;39.564;2.628;2022-11-11T02:06:31;5.00;;;1.10;;
74670;SDS011;63196;39.564;2.628;2022-11-11T02:08:57;7.20;;;1.50;;
74670;SDS011;63196;39.564;2.628;2022-11-11T02:11:23;5.30;;;1.20;;
74670;SDS011;63196;39.564;2.628;2022-11-11T02:14:09;7.40;;;1.00;;
74670;SDS011;63196;39.564;2.628;2022-11-11T02:16:53;11.60;;;1.90;;
74670;SDS011;63196;39.564;2.628;2022-11-11T02:19:20;9.90;;;1.30;;
74670;SDS011;63196;39.564;2.628;2022-11-11T02:21:50;4.70;;;1.00;;
74670;SDS011;63196;39.564;2.628;2022-11-11T02:24:17;7.60;;;1.30;;
74670;SDS011;63196;39.564;2.628;2022-11-11T02:26:44;5.70;;;1.50;;
74670;SDS011;63196;39.564;2.628;2022-11-11T02:29:12;7.50;;;1.30;;
74670;SDS011;63196;39.564;2.628;2022-11-11T02:31:39;5.50;;;1.10;;
74670;SDS011;63196;39.564;2.628;2022-11-11T02:34:05;5.00;;;1.10;;
74670;SDS011;63196;39.564;2.628;2022-11-11T02:36:30;6.80;;;1.10;;
74670;SDS011;63196;39.564;2.628;2022-11-11T02:38:55;5.90;;;1.10;;
74670;SDS011;63196;39.564;2.628;2022-11-11T02:41:21;6.50;;;1.60;;
74670;SDS011;63196;39.564;2.628;2022-11-11T02:44:05;3.90;;;0.90;;
74670;SDS011;63196;39.564;2.628;2022-11-11T02:46:30;6.70;;;0.90;;
74670;SDS011;63196;39.564;2.628;2022-11-11T02:48:56;7.20;;;1.50;;
74670;SDS011;63196;39.564;2.628;2022-11-11T02:51:21;6.60;;;1.20;;
74670;SDS011;63196;39.564;2.628;2022-11-11T02:53:47;5.30;;;1.10;;
74670;SDS011;63196;39.564;2.628;2022-11-11T02:56:12;5.80;;;1.40;;
74670;SDS011;63196;39.564;2.628;2022-11-11T02:58:57;3.40;;;1.00;;
74670;SDS011;63196;39.564;2.628;2022-11-11T03:01:23;4.10;;;0.70;;
74670;SDS011;63196;39.564;2.628;2022-11-11T03:03:48;6.30;;;1.00;;
74670;SDS011;63196;39.564;2.628;2022-11-11T03:06:13;4.80;;;1.40;;
74670;SDS011;63196;39.564;2.628;2022-11-11T03:08:39;4.20;;;1.00;;
74670;SDS011;63196;39.564;2.628;2022-11-11T03:11:04;5.00;;;1.40;;
74670;SDS011;63196;39.564;2.628;2022-11-11T03:13:29;7.10;;;2.40;;
74670;SDS011;63196;39.564;2.628;2022-11-11T03:15:55;5.00;;;1.00;;
74670;SDS011;63196;39.564;2.628;2022-11-11T03:18:20;5.30;;;1.20;;
74670;SDS011;63196;39.564;2.628;2022-11-11T03:20:46;3.10;;;0.90;;
74670;SDS011;63196;39.564;2.628;2022-11-11T03:23:29;4.20;;;0.90;;
74670;SDS011;63196;39.564;2.628;2022-11-11T03:25:55;5.60;;;1.10;;
74670;SDS011;63196;39.564;2.628;2022-11-11T03:28:20;5.10;;;1.20;;
74670;SDS011;63196;39.564;2.628;2022-11-11T03:30:47;5.30;;;1.10;;
74670;SDS011;63196;39.564;2.628;2022-11-11T03:33:13;5.70;;;0.90;;
74670;SDS011;63196;39.564;2.628;2022-11-11T03:35:39;3.60;;;0.90;;
74670;SDS011;63196;39.564;2.628;2022-11-11T03:38:05;4.90;;;1.40;;
74670;SDS011;63196;39.564;2.628;2022-11-11T03:40:44;5.50;;;1.30;;
74670;SDS011;63196;39.564;2.628;2022-11-11T03:43:10;5.90;;;1.40;;
74670;SDS011;63196;39.564;2.628;2022-11-11T03:45:36;3.70;;;1.00;;
74670;SDS011;63196;39.564;2.628;2022-11-11T03:48:02;6.20;;;1.50;;
74670;SDS011;63196;39.564;2.628;2022-11-11T03:50:27;4.20;;;1.00;;
74670;SDS011;63196;39.564;2.628;2022-11-11T03:52:52;5.70;;;1.10;;
74670;SDS011;63196;39.564;2.628;2022-11-11T03:55:18;3.60;;;1.30;;
74670;SDS011;63196;39.564;2.628;2022-11-11T03:57:44;4.90;;;1.10;;
74670;SDS011;63196;39.564;2.628;2022-11-11T04:00:11;7.40;;;1.70;;
74670;SDS011;63196;39.564;2.628;2022-11-11T04:02:37;7.00;;;1.60;;
74670;SDS011;63196;39.564;2.628;2022-11-11T04:05:21;5.00;;;1.10;;
74670;SDS011;63196;39.564;2.628;2022-11-11T04:08:07;4.80;;;1.20;;
74670;SDS011;63196;39.564;2.628;2022-11-11T04:10:51;9.50;;;1.20;;
74670;SDS011;63196;39.564;2.628;2022-11-11T04:13:17;7.20;;;1.70;;
74670;SDS011;63196;39.564;2.628;2022-11-11T04:16:01;3.50;;;1.20;;
74670;SDS011;63196;39.564;2.628;2022-11-11T04:18:33;7.30;;;1.50;;
74670;SDS011;63196;39.564;2.628;2022-11-11T04:21:17;4.90;;;1.20;;
74670;SDS011;63196;39.564;2.628;2022-11-11T04:24:02;9.00;;;1.40;;
74670;SDS011;63196;39.564;2.628;2022-11-11T04:26:48;5.00;;;1.40;;
74670;SDS011;63196;39.564;2.628;2022-11-11T04:29:13;3.90;;;1.10;;
74670;SDS011;63196;39.564;2.628;2022-11-11T04:32:27;6.60;;;1.70;;
74670;SDS011;63196;39.564;2.628;2022-11-11T04:35:04;7.10;;;2.10;;
74670;SDS011;63196;39.564;2.628;2022-11-11T04:37:31;6.70;;;1.30;;
74670;SDS011;63196;39.564;2.628;2022-11-11T04:39:57;5.70;;;1.10;;
74670;SDS011;63196;39.564;2.628;2022-11-11T04:42:41;6.90;;;1.40;;
74670;SDS011;63196;39.564;2.628;2022-11-11T04:45:08;5.50;;;1.50;;
74670;SDS011;63196;39.564;2.628;2022-11-11T04:47:55;5.50;;;1.90;;
74670;SDS011;63196;39.564;2.628;2022-11-11T04:50:21;4.90;;;1.50;;
74670;SDS011;63196;39.564;2.628;2022-11-11T04:52:47;4.90;;;1.30;;
74670;SDS011;63196;39.564;2.628;2022-11-11T04:55:12;5.80;;;1.20;;
74670;SDS011;63196;39.564;2.628;2022-11-11T04:57:57;6.50;;;1.60;;
74670;SDS011;63196;39.564;2.628;2022-11-11T05:00:22;4.00;;;1.60;;
74670;SDS011;63196;39.564;2.628;2022-11-11T05:02:47;6.30;;;2.00;;
74670;SDS011;63196;39.564;2.628;2022-11-11T05:05:36;7.60;;;2.00;;
74670;SDS011;63196;39.564;2.628;2022-11-11T05:08:20;8.60;;;1.30;;
74670;SDS011;63196;39.564;2.628;2022-11-11T05:11:04;6.10;;;1.20;;
74670;SDS011;63196;39.564;2.628;2022-11-11T05:13:30;4.60;;;1.30;;
74670;SDS011;63196;39.564;2.628;2022-11-11T05:16:18;5.00;;;1.20;;
74670;SDS011;63196;39.564;2.628;2022-11-11T05:19:03;5.40;;;1.30;;
74670;SDS011;63196;39.564;2.628;2022-11-11T05:21:48;5.70;;;1.50;;
74670;SDS011;63196;39.564;2.628;2022-11-11T05:24:13;7.40;;;1.80;;
74670;SDS011;63196;39.564;2.628;2022-11-11T05:26:57;5.30;;;1.50;;
74670;SDS011;63196;39.564;2.628;2022-11-11T05:29:22;5.30;;;1.10;;
74670;SDS011;63196;39.564;2.628;2022-11-11T05:31:48;7.50;;;1.50;;
74670;SDS011;63196;39.564;2.628;2022-11-11T05:34:13;4.30;;;1.40;;
74670;SDS011;63196;39.564;2.628;2022-11-11T05:36:38;6.10;;;1.10;;
74670;SDS011;63196;39.564;2.628;2022-11-11T05:39:04;5.90;;;1.20;;
74670;SDS011;63196;39.564;2.628;2022-11-11T05:41:29;8.60;;;1.90;;
74670;SDS011;63196;39.564;2.628;2022-11-11T05:43:55;6.00;;;1.30;;
74670;SDS011;63196;39.564;2.628;2022-11-11T05:46:20;6.50;;;1.30;;
74670;SDS011;63196;39.564;2.628;2022-11-11T05:48:45;6.00;;;1.20;;
74670;SDS011;63196;39.564;2.628;2022-11-11T05:51:29;3.80;;;1.50;;
74670;SDS011;63196;39.564;2.628;2022-11-11T05:53:55;5.90;;;1.60;;
74670;SDS011;63196;39.564;2.628;2022-11-11T05:56:21;4.90;;;1.40;;
74670;SDS011;63196;39.564;2.628;2022-11-11T05:58:46;4.70;;;1.30;;
74670;SDS011;63196;39.564;2.628;2022-11-11T06:01:11;4.90;;;1.20;;
74670;SDS011;63196;39.564;2.628;2022-11-11T06:03:37;9.40;;;1.80;;
74670;SDS011;63196;39.564;2.628;2022-11-11T06:06:02;6.80;;;1.40;;
74670;SDS011;63196;39.564;2.628;2022-11-11T06:08:28;4.50;;;0.90;;
74670;SDS011;63196;39.564;2.628;2022-11-11T06:10:53;7.70;;;1.40;;
74670;SDS011;63196;39.564;2.628;2022-11-11T06:13:18;4.60;;;1.30;;
74670;SDS011;63196;39.564;2.628;2022-11-11T06:15:44;6.10;;;1.40;;
74670;SDS011;63196;39.564;2.628;2022-11-11T06:18:09;6.90;;;1.50;;
74670;SDS011;63196;39.564;2.628;2022-11-11T06:20:34;3.40;;;1.10;;
74670;SDS011;63196;39.564;2.628;2022-11-11T06:23:00;9.10;;;1.30;;
74670;SDS011;63196;39.564;2.628;2022-11-11T06:25:27;8.70;;;1.50;;
74670;SDS011;63196;39.564;2.628;2022-11-11T06:28:11;6.80;;;1.50;;
74670;SDS011;63196;39.564;2.628;2022-11-11T06:30:37;6.70;;;1.20;;
74670;SDS011;63196;39.564;2.628;2022-11-11T06:33:03;4.70;;;1.30;;
74670;SDS011;63196;39.564;2.628;2022-11-11T06:35:28;5.90;;;1.20;;
74670;SDS011;63196;39.564;2.628;2022-11-11T06:37:54;6.60;;;1.60;;
74670;SDS011;63196;39.564;2.628;2022-11-11T06:40:19;6.90;;;1.80;;
74670;SDS011;63196;39.564;2.628;2022-11-11T06:42:44;8.70;;;1.70;;
74670;SDS011;63196;39.564;2.628;2022-11-11T06:45:10;6.40;;;1.60;;
74670;SDS011;63196;39.564;2.628;2022-11-11T06:47:35;7.40;;;1.70;;
74670;SDS011;63196;39.564;2.628;2022-11-11T06:50:01;7.10;;;1.70;;
74670;SDS011;63196;39.564;2.628;2022-11-11T06:52:26;6.10;;;1.40;;
74670;SDS011;63196;39.564;2.628;2022-11-11T06:54:51;8.30;;;1.20;;
74670;SDS011;63196;39.564;2.628;2022-11-11T06:57:17;5.70;;;1.20;;
74670;SDS011;63196;39.564;2.628;2022-11-11T06:59:42;4.00;;;1.10;;
74670;SDS011;63196;39.564;2.628;2022-11-11T07:02:11;8.60;;;1.50;;
74670;SDS011;63196;39.564;2.628;2022-11-11T07:04:37;6.90;;;2.00;;
74670;SDS011;63196;39.564;2.628;2022-11-11T07:07:02;5.10;;;1.60;;
74670;SDS011;63196;39.564;2.628;2022-11-11T07:09:28;7.30;;;1.80;;
74670;SDS011;63196;39.564;2.628;2022-11-11T07:11:53;5.80;;;1.50;;
74670;SDS011;63196;39.564;2.628;2022-11-11T07:14:18;6.40;;;1.80;;
74670;SDS011;63196;39.564;2.628;2022-11-11T07:16:44;6.60;;;1.60;;
74670;SDS011;63196;39.564;2.628;2022-11-11T07:19:09;5.50;;;1.50;;
74670;SDS011;63196;39.564;2.628;2022-11-11T07:21:34;7.50;;;2.00;;
74670;SDS011;63196;39.564;2.628;2022-11-11T07:24:00;6.70;;;1.40;;
74670;SDS011;63196;39.564;2.628;2022-11-11T07:26:25;6.50;;;1.30;;
74670;SDS011;63196;39.564;2.628;2022-11-11T07:28:50;4.60;;;1.50;;
74670;SDS011;63196;39.564;2.628;2022-11-11T07:31:16;7.60;;;1.40;;
74670;SDS011;63196;39.564;2.628;2022-11-11T07:33:41;5.20;;;1.60;;
74670;SDS011;63196;39.564;2.628;2022-11-11T07:36:06;8.30;;;1.30;;
74670;SDS011;63196;39.564;2.628;2022-11-11T07:38:32;8.30;;;2.20;;
74670;SDS011;63196;39.564;2.628;2022-11-11T07:41:01;5.70;;;1.50;;
74670;SDS011;63196;39.564;2.628;2022-11-11T07:43:29;5.90;;;1.50;;
74670;SDS011;63196;39.564;2.628;2022-11-11T07:45:55;7.10;;;1.40;;
74670;SDS011;63196;39.564;2.628;2022-11-11T07:48:20;7.30;;;1.60;;
74670;SDS011;63196;39.564;2.628;2022-11-11T07:50:46;5.40;;;1.60;;
74670;SDS011;63196;39.564;2.628;2022-11-11T07:53:11;9.10;;;1.50;;
74670;SDS011;63196;39.564;2.628;2022-11-11T07:55:36;8.60;;;1.80;;
74670;SDS011;63196;39.564;2.628;2022-11-11T07:58:02;5.30;;;1.70;;
74670;SDS011;63196;39.564;2.628;2022-11-11T08:00:27;8.20;;;2.30;;
74670;SDS011;63196;39.564;2.628;2022-11-11T08:02:53;7.20;;;1.90;;
74670;SDS011;63196;39.564;2.628;2022-11-11T08:05:18;6.10;;;2.00;;
74670;SDS011;63196;39.564;2.628;2022-11-11T08:07:43;8.10;;;1.70;;
74670;SDS011;63196;39.564;2.628;2022-11-11T08:10:09;8.70;;;1.90;;
74670;SDS011;63196;39.564;2.628;2022-11-11T08:12:35;10.10;;;2.50;;
74670;SDS011;63196;39.564;2.628;2022-11-11T08:15:19;6.20;;;1.70;;
74670;SDS011;63196;39.564;2.628;2022-11-11T08:17:44;5.30;;;1.70;;
74670;SDS011;63196;39.564;2.628;2022-11-11T08:20:10;9.00;;;2.40;;
74670;SDS011;63196;39.564;2.628;2022-11-11T08:22:39;6.40;;;1.70;;
74670;SDS011;63196;39.564;2.628;2022-11-11T08:25:05;8.50;;;2.10;;
74670;SDS011;63196;39.564;2.628;2022-11-11T08:27:31;6.60;;;1.60;;
74670;SDS011;63196;39.564;2.628;2022-11-11T08:29:57;7.80;;;2.30;;
74670;SDS011;63196;39.564;2.628;2022-11-11T08:32:22;7.70;;;1.90;;
74670;SDS011;63196;39.564;2.628;2022-11-11T08:34:48;6.20;;;1.70;;
74670;SDS011;63196;39.564;2.628;2022-11-11T08:37:13;6.80;;;2.20;;
74670;SDS011;63196;39.564;2.628;2022-11-11T08:39:38;4.80;;;1.60;;
74670;SDS011;63196;39.564;2.628;2022-11-11T08:42:04;7.50;;;2.20;;
74670;SDS011;63196;39.564;2.628;2022-11-11T08:44:30;7.50;;;2.30;;
74670;SDS011;63196;39.564;2.628;2022-11-11T08:46:55;7.40;;;2.10;;
74670;SDS011;63196;39.564;2.628;2022-11-11T08:49:20;9.80;;;2.00;;
74670;SDS011;63196;39.564;2.628;2022-11-11T08:51:46;8.60;;;2.60;;
74670;SDS011;63196;39.564;2.628;2022-11-11T08:54:11;6.70;;;2.20;;
74670;SDS011;63196;39.564;2.628;2022-11-11T08:56:37;7.60;;;2.10;;
74670;SDS011;63196;39.564;2.628;2022-11-11T08:59:02;6.90;;;1.90;;
74670;SDS011;63196;39.564;2.628;2022-11-11T09:01:28;9.90;;;1.90;;
74670;SDS011;63196;39.564;2.628;2022-11-11T09:03:53;7.70;;;2.30;;
74670;SDS011;63196;39.564;2.628;2022-11-11T09:06:18;7.90;;;1.70;;
74670;SDS011;63196;39.564;2.628;2022-11-11T09:08:44;5.30;;;1.40;;
74670;SDS011;63196;39.564;2.628;2022-11-11T09:11:09;6.50;;;2.20;;
74670;SDS011;63196;39.564;2.628;2022-11-11T09:13:35;7.00;;;1.80;;
74670;SDS011;63196;39.564;2.628;2022-11-11T09:16:00;6.30;;;1.90;;
74670;SDS011;63196;39.564;2.628;2022-11-11T09:18:26;6.30;;;1.80;;
74670;SDS011;63196;39.564;2.628;2022-11-11T09:20:51;7.70;;;1.90;;
74670;SDS011;63196;39.564;2.628;2022-11-11T09:23:18;5.00;;;1.50;;
74670;SDS011;63196;39.564;2.628;2022-11-11T09:25:43;6.90;;;1.70;;
74670;SDS011;63196;39.564;2.628;2022-11-11T09:28:09;5.50;;;1.80;;
74670;SDS011;63196;39.564;2.628;2022-11-11T09:30:34;6.00;;;1.60;;
74670;SDS011;63196;39.564;2.628;2022-11-11T09:33:00;5.20;;;1.30;;
74670;SDS011;63196;39.564;2.628;2022-11-11T09:35:26;7.70;;;1.60;;
74670;SDS011;63196;39.564;2.628;2022-11-11T09:37:54;5.80;;;1.80;;
74670;SDS011;63196;39.564;2.628;2022-11-11T09:40:21;6.10;;;1.50;;
74670;SDS011;63196;39.564;2.628;2022-11-11T09:45:47;6.30;;;1.40;;
74670;SDS011;63196;39.564;2.628;2022-11-11T09:50:49;5.30;;;1.50;;
74670;SDS011;63196;39.564;2.628;2022-11-11T09:58:36;7.00;;;2.00;;
74670;SDS011;63196;39.564;2.628;2022-11-11T10:01:06;5.00;;;1.50;;
74670;SDS011;63196;39.564;2.628;2022-11-11T10:03:33;6.60;;;1.50;;
74670;SDS011;63196;39.564;2.628;2022-11-11T10:06:05;7.10;;;1.70;;
74670;SDS011;63196;39.564;2.628;2022-11-11T10:08:41;5.30;;;1.40;;
74670;SDS011;63196;39.564;2.628;2022-11-11T10:11:50;7.90;;;1.90;;
74670;SDS011;63196;39.564;2.628;2022-11-11T10:13:56;7.70;;;1.90;;
74670;SDS011;63196;39.564;2.628;2022-11-11T10:16:31;8.90;;;1.90;;
74670;SDS011;63196;39.564;2.628;2022-11-11T10:21:40;5.00;;;1.50;;
74670;SDS011;63196;39.564;2.628;2022-11-11T10:24:11;6.50;;;2.00;;
74670;SDS011;63196;39.564;2.628;2022-11-11T10:26:39;5.30;;;1.60;;
74670;SDS011;63196;39.564;2.628;2022-11-11T10:29:08;4.80;;;1.90;;
74670;SDS011;63196;39.564;2.628;2022-11-11T10:31:34;7.30;;;2.10;;
74670;SDS011;63196;39.564;2.628;2022-11-11T10:36:26;6.90;;;1.50;;
74670;SDS011;63196;39.564;2.628;2022-11-11T10:39:00;6.20;;;1.70;;
74670;SDS011;63196;39.564;2.628;2022-11-11T10:44:25;6.70;;;1.80;;
74670;SDS011;63196;39.564;2.628;2022-11-11T10:47:00;8.70;;;1.90;;
74670;SDS011;63196;39.564;2.628;2022-11-11T10:49:30;7.90;;;1.90;;
74670;SDS011;63196;39.564;2.628;2022-11-11T10:52:11;7.20;;;2.00;;
74670;SDS011;63196;39.564;2.628;2022-11-11T10:54:40;8.80;;;1.80;;
74670;SDS011;63196;39.564;2.628;2022-11-11T10:57:17;9.00;;;2.00;;
74670;SDS011;63196;39.564;2.628;2022-11-11T11:02:12;4.40;;;1.50;;
74670;SDS011;63196;39.564;2.628;2022-11-11T11:07:06;5.60;;;1.30;;
74670;SDS011;63196;39.564;2.628;2022-11-11T11:09:38;6.20;;;1.80;;
74670;SDS011;63196;39.564;2.628;2022-11-11T11:12:08;4.30;;;1.60;;
74670;SDS011;63196;39.564;2.628;2022-11-11T11:14:38;8.00;;;2.00;;
74670;SDS011;63196;39.564;2.628;2022-11-11T11:17:12;7.60;;;1.90;;
74670;SDS011;63196;39.564;2.628;2022-11-11T11:19:39;6.50;;;2.10;;
74670;SDS011;63196;39.564;2.628;2022-11-11T11:22:04;6.50;;;2.00;;
74670;SDS011;63196;39.564;2.628;2022-11-11T11:24:31;5.90;;;1.60;;
74670;SDS011;63196;39.564;2.628;2022-11-11T11:26:58;6.70;;;1.70;;
74670;SDS011;63196;39.564;2.628;2022-11-11T11:29:24;7.30;;;1.60;;
74670;SDS011;63196;39.564;2.628;2022-11-11T11:31:50;6.60;;;1.60;;
74670;SDS011;63196;39.564;2.628;2022-11-11T11:34:16;5.00;;;1.60;;
74670;SDS011;63196;39.564;2.628;2022-11-11T11:36:42;7.80;;;1.80;;
74670;SDS011;63196;39.564;2.628;2022-11-11T11:39:07;6.10;;;2.10;;
74670;SDS011;63196;39.564;2.628;2022-11-11T11:41:36;7.30;;;1.60;;
74670;SDS011;63196;39.564;2.628;2022-11-11T11:44:02;6.30;;;1.70;;
74670;SDS011;63196;39.564;2.628;2022-11-11T11:46:29;7.50;;;2.40;;
74670;SDS011;63196;39.564;2.628;2022-11-11T11:51:31;5.80;;;1.80;;
74670;SDS011;63196;39.564;2.628;2022-11-11T11:56:38;6.30;;;1.80;;
74670;SDS011;63196;39.564;2.628;2022-11-11T11:59:08;8.60;;;1.90;;
74670;SDS011;63196;39.564;2.628;2022-11-11T12:11:47;8.30;;;2.40;;
74670;SDS011;63196;39.564;2.628;2022-11-11T12:14:29;6.00;;;1.90;;
74670;SDS011;63196;39.564;2.628;2022-11-11T12:19:50;7.90;;;2.50;;
74670;SDS011;63196;39.564;2.628;2022-11-11T12:27:59;7.10;;;2.30;;
74670;SDS011;63196;39.564;2.628;2022-11-11T12:30:26;9.00;;;2.20;;
74670;SDS011;63196;39.564;2.628;2022-11-11T12:51:43;8.40;;;2.50;;
74670;SDS011;63196;39.564;2.628;2022-11-11T13:02:06;8.80;;;2.80;;
74670;SDS011;63196;39.564;2.628;2022-11-11T13:12:01;11.10;;;3.10;;
74670;SDS011;63196;39.564;2.628;2022-11-11T13:17:03;11.30;;;2.50;;
74670;SDS011;63196;39.564;2.628;2022-11-11T13:19:38;9.20;;;2.40;;
74670;SDS011;63196;39.564;2.628;2022-11-11T13:24:36;9.30;;;2.70;;
74670;SDS011;63196;39.564;2.628;2022-11-11T13:29:47;10.90;;;2.80;;
74670;SDS011;63196;39.564;2.628;2022-11-11T13:32:16;11.80;;;3.40;;
74670;SDS011;63196;39.564;2.628;2022-11-11T13:34:43;11.10;;;3.20;;
74670;SDS011;63196;39.564;2.628;2022-11-11T13:37:15;12.00;;;2.90;;
74670;SDS011;63196;39.564;2.628;2022-11-11T13:39:46;10.40;;;3.00;;
74670;SDS011;63196;39.564;2.628;2022-11-11T13:42:12;8.30;;;2.70;;
74670;SDS011;63196;39.564;2.628;2022-11-11T13:44:48;12.20;;;3.20;;
74670;SDS011;63196;39.564;2.628;2022-11-11T13:47:19;7.10;;;2.50;;
74670;SDS011;63196;39.564;2.628;2022-11-11T13:49:50;11.30;;;3.00;;
74670;SDS011;63196;39.564;2.628;2022-11-11T13:52:24;9.80;;;3.40;;
74670;SDS011;63196;39.564;2.628;2022-11-11T13:55:00;7.80;;;2.80;;
74670;SDS011;63196;39.564;2.628;2022-11-11T13:57:26;9.50;;;3.90;;
74670;SDS011;63196;39.564;2.628;2022-11-11T14:02:28;11.10;;;2.70;;
74670;SDS011;63196;39.564;2.628;2022-11-11T14:12:38;10.80;;;3.00;;
74670;SDS011;63196;39.564;2.628;2022-11-11T14:15:11;10.10;;;2.30;;
74670;SDS011;63196;39.564;2.628;2022-11-11T14:17:51;11.50;;;2.90;;
74670;SDS011;63196;39.564;2.628;2022-11-11T14:22:54;10.40;;;2.20;;
74670;SDS011;63196;39.564;2.628;2022-11-11T14:25:39;9.50;;;2.60;;
74670;SDS011;63196;39.564;2.628;2022-11-11T14:28:17;9.90;;;2.20;;
74670;SDS011;63196;39.564;2.628;2022-11-11T14:30:43;8.10;;;2.50;;
74670;SDS011;63196;39.564;2.628;2022-11-11T14:35:57;12.20;;;3.10;;
74670;SDS011;63196;39.564;2.628;2022-11-11T14:38:37;7.20;;;2.40;;
74670;SDS011;63196;39.564;2.628;2022-11-11T14:43:51;9.60;;;2.40;;
74670;SDS011;63196;39.564;2.628;2022-11-11T14:46:16;9.70;;;2.90;;
74670;SDS011;63196;39.564;2.628;2022-11-11T14:48:49;11.00;;;2.90;;
74670;SDS011;63196;39.564;2.628;2022-11-11T14:53:58;11.80;;;3.30;;
74670;SDS011;63196;39.564;2.628;2022-11-11T14:56:24;13.70;;;3.30;;
74670;SDS011;63196;39.564;2.628;2022-11-11T14:58:51;9.40;;;2.20;;
74670;SDS011;63196;39.564;2.628;2022-11-11T15:01:17;11.80;;;3.30;;
74670;SDS011;63196;39.564;2.628;2022-11-11T15:03:47;10.80;;;3.00;;
74670;SDS011;63196;39.564;2.628;2022-11-11T15:09:10;8.70;;;2.20;;
74670;SDS011;63196;39.564;2.628;2022-11-11T15:24:50;13.40;;;3.50;;
74670;SDS011;63196;39.564;2.628;2022-11-11T15:27:28;9.70;;;3.00;;
74670;SDS011;63196;39.564;2.628;2022-11-11T15:30:16;11.10;;;3.20;;
74670;SDS011;63196;39.564;2.628;2022-11-11T15:32:49;9.10;;;2.50;;
74670;SDS011;63196;39.564;2.628;2022-11-11T15:35:29;9.30;;;2.80;;
74670;SDS011;63196;39.564;2.628;2022-11-11T15:37:59;10.60;;;3.80;;
74670;SDS011;63196;39.564;2.628;2022-11-11T15:40:26;11.20;;;3.10;;
74670;SDS011;63196;39.564;2.628;2022-11-11T15:42:54;8.80;;;3.20;;
74670;SDS011;63196;39.564;2.628;2022-11-11T15:45:21;10.30;;;3.00;;
74670;SDS011;63196;39.564;2.628;2022-11-11T15:52:41;8.30;;;2.90;;
74670;SDS011;63196;39.564;2.628;2022-11-11T15:55:26;11.50;;;3.20;;
74670;SDS011;63196;39.564;2.628;2022-11-11T15:57:52;9.90;;;3.40;;
74670;SDS011;63196;39.564;2.628;2022-11-11T16:00:27;9.40;;;3.40;;
74670;SDS011;63196;39.564;2.628;2022-11-11T16:02:53;14.20;;;4.00;;
74670;SDS011;63196;39.564;2.628;2022-11-11T16:05:24;11.90;;;3.30;;
74670;SDS011;63196;39.564;2.628;2022-11-11T16:07:51;11.20;;;3.60;;
74670;SDS011;63196;39.564;2.628;2022-11-11T16:10:24;13.50;;;3.60;;
74670;SDS011;63196;39.564;2.628;2022-11-11T16:12:58;12.00;;;4.50;;
74670;SDS011;63196;39.564;2.628;2022-11-11T16:17:58;13.30;;;3.40;;
74670;SDS011;63196;39.564;2.628;2022-11-11T16:20:59;8.80;;;3.80;;
74670;SDS011;63196;39.564;2.628;2022-11-11T16:23:17;13.40;;;4.20;;
74670;SDS011;63196;39.564;2.628;2022-11-11T16:25:44;11.70;;;3.60;;
74670;SDS011;63196;39.564;2.628;2022-11-11T16:28:10;13.00;;;4.00;;
74670;SDS011;63196;39.564;2.628;2022-11-11T16:30:36;13.90;;;4.00;;
74670;SDS011;63196;39.564;2.628;2022-11-11T16:33:02;14.70;;;4.60;;
74670;SDS011;63196;39.564;2.628;2022-11-11T16:35:37;10.80;;;3.80;;
74670;SDS011;63196;39.564;2.628;2022-11-11T16:38:04;12.20;;;4.20;;
74670;SDS011;63196;39.564;2.628;2022-11-11T16:43:12;9.40;;;3.40;;
74670;SDS011;63196;39.564;2.628;2022-11-11T16:45:45;10.30;;;3.70;;
74670;SDS011;63196;39.564;2.628;2022-11-11T16:51:06;8.60;;;3.90;;
74670;SDS011;63196;39.564;2.628;2022-11-11T16:53:37;10.40;;;4.40;;
74670;SDS011;63196;39.564;2.628;2022-11-11T16:56:04;9.20;;;3.90;;
74670;SDS011;63196;39.564;2.628;2022-11-11T16:58:31;10.50;;;4.70;;
74670;SDS011;63196;39.564;2.628;2022-11-11T17:00:57;10.20;;;3.60;;
74670;SDS011;63196;39.564;2.628;2022-11-11T17:03:23;13.10;;;4.40;;
74670;SDS011;63196;39.564;2.628;2022-11-11T17:05:55;10.60;;;4.30;;
74670;SDS011;63196;39.564;2.628;2022-11-11T17:08:28;16.30;;;5.30;;
74670;SDS011;63196;39.564;2.628;2022-11-11T17:10:54;12.00;;;3.90;;
74670;SDS011;63196;39.564;2.628;2022-11-11T17:13:20;10.00;;;4.50;;
74670;SDS011;63196;39.564;2.628;2022-11-11T17:15:45;16.30;;;5.20;;
74670;SDS011;63196;39.564;2.628;2022-11-11T17:18:11;12.50;;;4.70;;
74670;SDS011;63196;39.564;2.628;2022-11-11T17:20:38;10.00;;;3.80;;
74670;SDS011;63196;39.564;2.628;2022-11-11T17:23:04;11.50;;;4.30;;